createdAt,value
2022-09-27T00:01:12.122Z,98535.81
2022-09-27T00:03:39.625Z,98539.63
2022-09-27T00:06:14.011Z,98535.44
2022-09-27T00:08:41.991Z,98540.53
2022-09-27T00:11:21.134Z,98541.69
2022-09-27T00:13:48.025Z,98548.56
2022-09-27T00:16:15.136Z,98544.13
2022-09-27T00:18:42.552Z,98541.78
2022-09-27T00:21:13.398Z,98533.16
2022-09-27T00:23:40.873Z,98528.63
2022-09-27T00:26:11.387Z,98529.19
2022-09-27T00:28:38.977Z,98526.00
2022-09-27T00:31:32.244Z,98529.84
2022-09-27T00:34:02.177Z,98529.09
2022-09-27T00:36:30.871Z,98530.22
2022-09-27T00:39:00.042Z,98520.03
2022-09-27T00:41:32.750Z,98529.81
2022-09-27T00:44:33.788Z,98523.06
2022-09-27T00:47:14.761Z,98528.28
2022-09-27T00:49:47.156Z,98524.63
2022-09-27T00:52:23.876Z,98522.22
2022-09-27T00:54:56.779Z,98529.00
2022-09-27T00:57:24.156Z,98533.03
2022-09-27T01:00:09.669Z,98523.00
2022-09-27T01:02:41.743Z,98526.59
2022-09-27T01:05:11.792Z,98526.41
2022-09-27T01:07:38.876Z,98532.09
2022-09-27T01:10:07.337Z,98537.66
2022-09-27T01:12:46.238Z,98533.13
2022-09-27T01:15:30.137Z,98535.63
2022-09-27T01:18:22.969Z,98523.28
2022-09-27T01:21:23.710Z,98523.06
2022-09-27T01:24:11.561Z,98522.09
2022-09-27T01:26:50.160Z,98523.91
2022-09-27T01:29:49.021Z,98528.72
2022-09-27T01:32:27.867Z,98531.63
2022-09-27T01:35:11.790Z,98530.63
2022-09-27T01:38:13.162Z,98536.34
2022-09-27T01:41:06.263Z,98536.31
2022-09-27T01:43:55.360Z,98543.03
2022-09-27T01:46:42.235Z,98534.50
2022-09-27T01:49:17.392Z,98534.56
2022-09-27T01:52:13.168Z,98536.28
2022-09-27T01:54:47.673Z,98543.13
2022-09-27T01:57:25.651Z,98539.94
2022-09-27T02:00:11.835Z,98542.72
2022-09-27T02:03:09.552Z,98544.78
2022-09-27T02:05:50.652Z,98545.28
2022-09-27T02:08:43.932Z,98543.69
2022-09-27T02:11:13.822Z,98542.84
2022-09-27T02:14:06.068Z,98544.34
2022-09-27T02:16:53.768Z,98551.06
2022-09-27T02:19:54.070Z,98552.59
2022-09-27T02:22:40.108Z,98550.94
2022-09-27T02:25:19.010Z,98548.06
2022-09-27T02:27:59.436Z,98550.00
2022-09-27T02:30:26.878Z,98559.75
2022-09-27T02:32:54.227Z,98566.28
2022-09-27T02:35:35.580Z,98559.88
2022-09-27T02:38:06.156Z,98565.66
2022-09-27T02:40:37.228Z,98564.25
2022-09-27T02:43:05.973Z,98563.94
2022-09-27T02:46:20.456Z,98573.88
2022-09-27T02:49:20.819Z,98577.13
2022-09-27T02:52:11.891Z,98568.47
2022-09-27T02:55:13.290Z,98583.56
2022-09-27T02:57:58.593Z,98580.38
2022-09-27T03:01:02.372Z,98586.91
2022-09-27T03:03:53.965Z,98585.56
2022-09-27T03:06:23.271Z,98588.75
2022-09-27T03:08:51.208Z,98586.56
2022-09-27T03:11:18.213Z,98590.28
2022-09-27T03:14:07.358Z,98590.66
2022-09-27T03:16:32.461Z,98594.56
2022-09-27T03:18:59.410Z,98590.59
2022-09-27T03:21:27.768Z,98594.91
2022-09-27T03:23:54.857Z,98599.38
2022-09-27T03:26:21.852Z,98602.78
2022-09-27T03:28:49.099Z,98603.16
2022-09-27T03:31:16.102Z,98596.97
2022-09-27T03:33:43.046Z,98602.78
2022-09-27T03:36:10.056Z,98607.78
2022-09-27T03:38:37.002Z,98598.75
2022-09-27T03:41:04.919Z,98614.19
2022-09-27T03:43:31.811Z,98610.00
2022-09-27T03:45:59.038Z,98605.00
2022-09-27T03:48:28.234Z,98618.81
2022-09-27T03:50:55.444Z,98613.94
2022-09-27T03:53:22.579Z,98614.78
2022-09-27T03:55:49.539Z,98608.38
2022-09-27T03:58:16.610Z,98608.50
2022-09-27T04:00:46.200Z,98621.09
2022-09-27T04:03:13.536Z,98623.25
2022-09-27T04:05:40.568Z,98631.63
2022-09-27T04:08:07.866Z,98640.25
2022-09-27T04:10:36.805Z,98641.47
2022-09-27T04:13:04.793Z,98628.44
2022-09-27T04:15:31.742Z,98639.81
2022-09-27T04:17:58.642Z,98639.44
2022-09-27T04:20:25.670Z,98649.41
2022-09-27T04:22:52.568Z,98645.75
2022-09-27T04:25:19.515Z,98651.34
2022-09-27T04:27:48.303Z,98657.59
2022-09-27T04:30:15.964Z,98659.72
2022-09-27T04:32:44.761Z,98657.69
2022-09-27T04:35:31.939Z,98661.09
2022-09-27T04:37:59.974Z,98657.22
2022-09-27T04:40:27.011Z,98669.06
2022-09-27T04:42:54.118Z,98672.22
2022-09-27T04:45:21.390Z,98670.13
2022-09-27T04:47:50.458Z,98681.09
2022-09-27T04:50:18.588Z,98673.41
2022-09-27T04:52:50.493Z,98682.13
2022-09-27T04:55:17.910Z,98676.69
2022-09-27T04:57:44.804Z,98684.97
2022-09-27T05:00:13.704Z,98681.91
2022-09-27T05:02:40.693Z,98685.78
2022-09-27T05:05:08.154Z,98693.41
2022-09-27T05:07:35.858Z,98692.97
2022-09-27T05:10:03.297Z,98692.53
2022-09-27T05:12:30.198Z,98696.56
2022-09-27T05:14:57.115Z,98701.44
2022-09-27T05:17:24.145Z,98706.78
2022-09-27T05:19:51.121Z,98715.50
2022-09-27T05:22:18.479Z,98710.72
2022-09-27T05:24:45.880Z,98718.19
2022-09-27T05:27:20.452Z,98718.97
2022-09-27T05:29:48.254Z,98721.03
2022-09-27T05:32:15.918Z,98724.72
2022-09-27T05:34:43.049Z,98721.13
2022-09-27T05:37:10.650Z,98736.09
2022-09-27T05:39:37.651Z,98732.25
2022-09-27T05:42:04.968Z,98728.31
2022-09-27T05:44:31.959Z,98727.59
2022-09-27T05:47:04.238Z,98730.66
2022-09-27T05:49:32.307Z,98736.72
2022-09-27T05:51:59.300Z,98735.75
2022-09-27T05:54:29.572Z,98745.38
2022-09-27T05:57:00.690Z,98742.28
2022-09-27T05:59:28.639Z,98745.88
2022-09-27T06:01:55.646Z,98750.09
2022-09-27T06:04:22.943Z,98745.69
2022-09-27T06:06:49.979Z,98748.31
2022-09-27T06:09:17.638Z,98745.41
2022-09-27T06:11:45.507Z,98745.41
2022-09-27T06:14:15.658Z,98754.22
2022-09-27T06:16:42.712Z,98739.50
2022-09-27T06:19:10.227Z,98753.44
2022-09-27T06:21:37.611Z,98757.53
2022-09-27T06:24:04.775Z,98761.31
2022-09-27T06:26:31.921Z,98759.16
2022-09-27T06:28:58.947Z,98766.22
2022-09-27T06:31:25.850Z,98775.28
2022-09-27T06:33:52.965Z,98770.44
2022-09-27T06:36:19.956Z,98773.41
2022-09-27T06:38:48.253Z,98789.88
2022-09-27T06:41:15.311Z,98783.59
2022-09-27T06:43:42.571Z,98784.16
2022-09-27T06:46:09.563Z,98791.16
2022-09-27T06:48:38.449Z,98794.00
2022-09-27T06:51:06.382Z,98802.91
2022-09-27T06:53:33.295Z,98807.03
2022-09-27T06:56:01.504Z,98811.78
2022-09-27T06:58:50.130Z,98819.66
2022-09-27T07:01:18.217Z,98800.00
2022-09-27T07:03:50.694Z,98810.66
2022-09-27T07:06:22.526Z,98811.66
2022-09-27T07:08:53.657Z,98811.66
2022-09-27T07:11:22.653Z,98809.16
2022-09-27T07:13:51.499Z,98813.13
2022-09-27T07:16:19.106Z,98818.75
2022-09-27T07:18:49.513Z,98834.38
2022-09-27T07:21:16.602Z,98832.16
2022-09-27T07:23:43.619Z,98835.88
2022-09-27T07:26:11.189Z,98839.91
2022-09-27T07:28:40.389Z,98841.53
2022-09-27T07:31:09.077Z,98845.25
2022-09-27T07:33:38.894Z,98843.50
2022-09-27T07:36:11.493Z,98851.75
2022-09-27T07:38:38.505Z,98861.25
2022-09-27T07:41:14.008Z,98858.56
2022-09-27T07:43:42.552Z,98864.28
2022-09-27T07:46:10.815Z,98861.97
2022-09-27T07:48:37.820Z,98858.91
2022-09-27T07:51:07.761Z,98868.22
2022-09-27T07:53:34.760Z,98867.50
2022-09-27T07:56:02.164Z,98875.66
2022-09-27T07:58:30.509Z,98867.03
2022-09-27T08:01:00.690Z,98873.03
2022-09-27T08:03:28.460Z,98872.06
2022-09-27T08:05:55.424Z,98871.25
2022-09-27T08:08:24.233Z,98877.75
2022-09-27T08:10:51.263Z,98872.84
2022-09-27T08:13:20.287Z,98875.94
2022-09-27T08:15:48.699Z,98883.72
2022-09-27T08:18:16.543Z,98881.19
2022-09-27T08:20:43.673Z,98885.63
2022-09-27T08:23:10.742Z,98879.88
2022-09-27T08:25:37.766Z,98885.00
2022-09-27T08:28:05.390Z,98884.91
2022-09-27T08:30:33.109Z,98890.75
2022-09-27T08:33:03.294Z,98880.72
2022-09-27T08:35:33.926Z,98884.16
2022-09-27T08:38:03.022Z,98884.22
2022-09-27T08:41:38.163Z,98871.38
2022-09-27T08:44:20.832Z,98877.63
2022-09-27T08:47:17.240Z,98875.66
2022-09-27T08:50:15.597Z,98894.13
2022-09-27T08:53:05.675Z,98897.72
2022-09-27T08:55:53.712Z,98905.34
2022-09-27T08:58:28.619Z,98894.69
2022-09-27T09:01:02.935Z,98898.72
2022-09-27T09:03:34.630Z,98890.91
2022-09-27T09:06:26.140Z,98893.44
2022-09-27T09:09:35.182Z,98886.38
2022-09-27T09:12:49.235Z,98885.00
2022-09-27T09:15:19.234Z,98876.25
2022-09-27T09:18:05.020Z,98871.44
2022-09-27T09:21:05.736Z,98869.03
2022-09-27T09:24:07.792Z,98872.44
2022-09-27T09:27:05.432Z,98877.97
2022-09-27T09:29:53.465Z,98888.94
2022-09-27T09:33:06.466Z,98892.44
2022-09-27T09:35:42.268Z,98900.31
2022-09-27T09:38:24.964Z,98890.63
2022-09-27T09:41:03.014Z,98890.78
2022-09-27T09:43:52.635Z,98897.66
2022-09-27T09:46:36.476Z,98918.94
2022-09-27T09:49:27.396Z,98902.63
2022-09-27T09:52:19.258Z,98915.47
2022-09-27T09:55:02.591Z,98920.16
2022-09-27T09:57:42.587Z,98918.19
2022-09-27T10:00:18.893Z,98923.63
2022-09-27T10:02:48.067Z,98909.97
2022-09-27T10:05:19.964Z,98916.47
2022-09-27T10:07:50.638Z,98915.09
2022-09-27T10:10:20.601Z,98904.59
2022-09-27T10:12:48.571Z,98911.03
2022-09-27T10:15:23.987Z,98897.94
2022-09-27T10:17:58.057Z,98883.69
2022-09-27T10:20:39.199Z,98884.44
2022-09-27T10:23:21.242Z,98883.34
2022-09-27T10:25:56.763Z,98854.78
2022-09-27T10:28:46.015Z,98864.56
2022-09-27T10:31:18.151Z,98872.31
2022-09-27T10:33:59.616Z,98877.09
2022-09-27T10:36:36.576Z,98877.44
2022-09-27T10:39:07.256Z,98864.91
2022-09-27T10:41:36.634Z,98867.84
2022-09-27T10:44:16.133Z,98867.16
2022-09-27T10:46:45.178Z,98866.25
2022-09-27T10:49:37.664Z,98865.50
2022-09-27T10:52:14.295Z,98860.72
2022-09-27T10:54:42.719Z,98857.81
2022-09-27T10:57:32.558Z,98841.03
2022-09-27T11:00:20.354Z,98845.06
2022-09-27T11:02:57.385Z,98839.84
2022-09-27T11:05:27.807Z,98841.66
2022-09-27T11:07:58.351Z,98838.38
2022-09-27T11:10:37.179Z,98828.94
2022-09-27T11:13:20.515Z,98841.47
2022-09-27T11:16:08.174Z,98832.66
2022-09-27T11:18:47.083Z,98827.34
2022-09-27T11:21:23.741Z,98832.44
2022-09-27T11:24:34.891Z,98813.13
2022-09-27T11:27:40.020Z,98827.41
2022-09-27T11:30:24.016Z,98818.38
2022-09-27T11:32:50.882Z,98813.31
2022-09-27T11:36:11.431Z,98812.31
2022-09-27T11:39:33.459Z,98815.56
2022-09-27T11:42:08.235Z,98797.25
2022-09-27T11:44:38.207Z,98796.81
2022-09-27T11:47:45.948Z,98787.34
2022-09-27T11:50:22.135Z,98780.31
2022-09-27T11:53:00.445Z,98780.94
2022-09-27T11:55:56.571Z,98795.44
2022-09-27T11:58:51.403Z,98778.25
2022-09-27T12:01:51.908Z,98767.66
2022-09-27T12:05:08.324Z,98758.78
2022-09-27T12:08:31.968Z,98764.50
2022-09-27T12:11:28.088Z,98770.50
2022-09-27T12:14:23.505Z,98776.97
2022-09-27T12:16:54.995Z,98775.72
2022-09-27T12:19:39.832Z,98783.75
2022-09-27T12:22:13.088Z,98805.06
2022-09-27T12:24:40.835Z,98792.81
2022-09-27T12:27:50.664Z,98801.44
2022-09-27T12:30:17.837Z,98791.31
2022-09-27T12:32:56.606Z,98800.84
2022-09-27T12:35:29.180Z,98809.06
2022-09-27T12:38:03.684Z,98814.16
2022-09-27T12:40:46.892Z,98803.81
2022-09-27T12:43:27.614Z,98811.03
2022-09-27T12:46:25.441Z,98813.09
2022-09-27T12:49:29.760Z,98833.25
2022-09-27T12:52:08.133Z,98835.88
2022-09-27T12:55:02.599Z,98845.38
2022-09-27T12:57:39.248Z,98838.19
2022-09-27T13:00:08.958Z,98830.50
2022-09-27T13:03:32.400Z,98837.16
2022-09-27T13:06:25.911Z,98833.72
2022-09-27T13:09:10.970Z,98831.50
2022-09-27T13:11:47.674Z,98825.59
2022-09-27T13:14:23.165Z,98829.03
2022-09-27T13:16:51.443Z,98806.66
2022-09-27T13:19:42.639Z,98813.63
2022-09-27T13:22:27.956Z,98818.09
2022-09-27T13:24:56.027Z,98818.53
2022-09-27T13:27:25.479Z,98821.41
2022-09-27T13:30:19.914Z,98811.09
2022-09-27T13:33:08.663Z,98809.22
2022-09-27T13:35:36.394Z,98812.50
2022-09-27T13:38:07.058Z,98822.28
2022-09-27T13:40:36.630Z,98809.25
2022-09-27T13:43:18.086Z,98809.69
2022-09-27T13:45:58.704Z,98816.03
2022-09-27T13:48:47.812Z,98813.38
2022-09-27T13:51:33.976Z,98807.97
2022-09-27T13:54:10.075Z,98802.63
2022-09-27T13:56:37.993Z,98804.31
2022-09-27T13:59:12.355Z,98803.84
2022-09-27T14:01:53.372Z,98790.81
2022-09-27T14:04:23.028Z,98786.59
2022-09-27T14:06:58.350Z,98785.66
2022-09-27T14:09:32.030Z,98787.41
2022-09-27T14:12:03.839Z,98782.72
2022-09-27T14:14:33.015Z,98773.97
2022-09-27T14:17:01.515Z,98773.63
2022-09-27T14:19:29.187Z,98773.69
2022-09-27T14:22:13.111Z,98770.06
2022-09-27T14:24:40.006Z,98777.75
2022-09-27T14:27:25.640Z,98766.50
2022-09-27T14:30:03.268Z,98772.09
2022-09-27T14:32:33.968Z,98772.25
2022-09-27T14:35:48.336Z,98772.91
2022-09-27T14:41:09.963Z,98787.22
2022-09-27T14:43:44.018Z,98790.53
2022-09-27T14:46:28.903Z,98776.81
2022-09-27T14:48:56.493Z,98784.78
2022-09-27T14:51:32.048Z,98790.41
2022-09-27T14:54:01.458Z,98772.34
2022-09-27T14:56:38.792Z,98773.56
2022-09-27T14:59:17.655Z,98782.25
2022-09-27T15:01:52.444Z,98791.50
2022-09-27T15:04:22.271Z,98783.78
2022-09-27T15:06:49.770Z,98797.84
2022-09-27T15:09:18.566Z,98793.19
2022-09-27T15:11:52.785Z,98790.03
2022-09-27T15:14:21.806Z,98804.28
2022-09-27T15:16:52.421Z,98812.09
2022-09-27T15:19:29.117Z,98815.59
2022-09-27T15:22:00.158Z,98804.75
2022-09-27T15:24:44.887Z,98813.69
2022-09-27T15:27:22.752Z,98816.28
2022-09-27T15:29:58.452Z,98809.28
2022-09-27T15:32:28.485Z,98821.63
2022-09-27T15:34:56.944Z,98800.91
2022-09-27T15:37:29.152Z,98791.75
2022-09-27T15:40:27.449Z,98797.38
2022-09-27T15:43:02.130Z,98793.44
2022-09-27T15:45:35.410Z,98789.28
2022-09-27T15:48:17.868Z,98789.03
2022-09-27T15:50:44.925Z,98781.22
2022-09-27T15:53:11.974Z,98796.53
2022-09-27T15:55:45.157Z,98784.81
2022-09-27T15:58:16.891Z,98799.78
2022-09-27T16:00:59.830Z,98788.41
2022-09-27T16:03:27.302Z,98781.69
2022-09-27T16:05:56.779Z,98795.00
2022-09-27T16:08:25.581Z,98800.22
2022-09-27T16:10:58.892Z,98803.78
2022-09-27T16:13:32.473Z,98808.03
2022-09-27T16:16:02.285Z,98816.00
2022-09-27T16:18:30.781Z,98804.78
2022-09-27T16:20:59.207Z,98812.72
2022-09-27T16:23:26.367Z,98815.06
2022-09-27T16:25:53.870Z,98822.31
2022-09-27T16:28:21.382Z,98832.34
2022-09-27T16:30:48.516Z,98831.81
2022-09-27T16:33:15.777Z,98840.25
2022-09-27T16:35:42.872Z,98834.72
2022-09-27T16:38:10.236Z,98842.28
2022-09-27T16:40:38.028Z,98848.19
2022-09-27T16:43:07.364Z,98843.16
2022-09-27T16:45:36.397Z,98842.78
2022-09-27T16:48:03.768Z,98849.75
2022-09-27T16:50:49.164Z,98850.38
2022-09-27T16:53:16.447Z,98861.47
2022-09-27T16:55:43.428Z,98854.34
2022-09-27T16:58:10.474Z,98859.97
2022-09-27T17:00:37.689Z,98859.94
2022-09-27T17:03:04.853Z,98859.09
2022-09-27T17:05:31.909Z,98863.88
2022-09-27T17:07:58.931Z,98866.34
2022-09-27T17:10:25.975Z,98877.31
2022-09-27T17:12:53.016Z,98879.53
2022-09-27T17:15:20.426Z,98881.13
2022-09-27T17:17:50.829Z,98885.53
2022-09-27T17:20:18.262Z,98884.22
2022-09-27T17:22:45.338Z,98886.41
2022-09-27T17:25:12.330Z,98880.63
2022-09-27T17:27:39.227Z,98889.75
2022-09-27T17:30:07.296Z,98887.16
2022-09-27T17:32:34.878Z,98893.44
2022-09-27T17:35:02.636Z,98896.34
2022-09-27T17:37:30.295Z,98893.72
2022-09-27T17:39:57.661Z,98893.44
2022-09-27T17:42:25.279Z,98895.06
2022-09-27T17:44:52.334Z,98893.28
2022-09-27T17:47:38.099Z,98895.47
2022-09-27T17:50:24.019Z,98890.44
2022-09-27T17:52:52.188Z,98897.53
2022-09-27T17:55:19.266Z,98893.41
2022-09-27T17:57:50.408Z,98888.66
2022-09-27T18:00:18.613Z,98898.88
2022-09-27T18:02:46.081Z,98892.63
2022-09-27T18:05:13.489Z,98897.53
2022-09-27T18:07:40.431Z,98883.28
2022-09-27T18:10:07.914Z,98899.31
2022-09-27T18:12:35.253Z,98897.34
2022-09-27T18:15:03.213Z,98897.91
2022-09-27T18:17:30.626Z,98896.66
2022-09-27T18:19:59.898Z,98900.59
2022-09-27T18:22:31.096Z,98912.78
2022-09-27T18:24:58.424Z,98913.69
2022-09-27T18:27:25.456Z,98916.38
2022-09-27T18:29:52.750Z,98914.56
2022-09-27T18:32:19.657Z,98913.56
2022-09-27T18:34:46.574Z,98920.06
2022-09-27T18:37:13.514Z,98915.88
2022-09-27T18:39:40.916Z,98918.44
2022-09-27T18:42:09.017Z,98919.25
2022-09-27T18:44:35.973Z,98923.22
2022-09-27T18:47:03.047Z,98920.88
2022-09-27T18:49:33.837Z,98919.72
2022-09-27T18:52:02.586Z,98922.53
2022-09-27T18:54:29.546Z,98923.16
2022-09-27T18:56:56.484Z,98920.34
2022-09-27T18:59:24.035Z,98927.81
2022-09-27T19:01:51.701Z,98932.72
2022-09-27T19:04:25.037Z,98936.47
2022-09-27T19:06:53.980Z,98933.50
2022-09-27T19:09:21.092Z,98932.19
2022-09-27T19:11:48.391Z,98925.66
2022-09-27T19:14:18.875Z,98934.25
2022-09-27T19:16:47.424Z,98929.25
2022-09-27T19:19:16.600Z,98929.72
2022-09-27T19:21:43.815Z,98928.47
2022-09-27T19:24:11.773Z,98923.94
2022-09-27T19:26:38.951Z,98923.34
2022-09-27T19:29:06.508Z,98922.00
2022-09-27T19:31:33.900Z,98923.53
2022-09-27T19:34:00.986Z,98917.16
2022-09-27T19:36:28.973Z,98910.53
2022-09-27T19:38:58.867Z,98899.06
2022-09-27T19:41:26.584Z,98894.38
2022-09-27T19:43:55.493Z,98899.22
2022-09-27T19:46:24.407Z,98905.88
2022-09-27T19:48:53.106Z,98906.31
2022-09-27T19:51:26.040Z,98913.66
2022-09-27T19:53:54.269Z,98899.41
2022-09-27T19:56:22.609Z,98903.94
2022-09-27T19:58:50.077Z,98893.22
2022-09-27T20:01:23.130Z,98888.31
2022-09-27T20:03:52.561Z,98893.44
2022-09-27T20:06:21.723Z,98887.84
2022-09-27T20:08:49.037Z,98887.84
2022-09-27T20:11:22.386Z,98885.50
2022-09-27T20:13:53.757Z,98887.44
2022-09-27T20:16:24.427Z,98881.69
2022-09-27T20:18:54.711Z,98886.22
2022-09-27T20:21:24.589Z,98881.84
2022-09-27T20:23:55.053Z,98883.41
2022-09-27T20:26:25.110Z,98881.97
2022-09-27T20:28:57.058Z,98881.72
2022-09-27T20:31:30.726Z,98875.81
2022-09-27T20:33:57.666Z,98869.81
2022-09-27T20:36:31.226Z,98870.41
2022-09-27T20:39:05.267Z,98869.47
2022-09-27T20:41:42.524Z,98864.50
2022-09-27T20:44:15.461Z,98865.44
2022-09-27T20:46:44.330Z,98859.50
2022-09-27T20:49:16.202Z,98858.06
2022-09-27T20:51:45.609Z,98850.72
2022-09-27T20:54:13.202Z,98857.50
2022-09-27T20:56:43.610Z,98847.72
2022-09-27T20:59:22.689Z,98843.53
2022-09-27T21:01:52.477Z,98840.16
2022-09-27T21:04:21.560Z,98838.78
2022-09-27T21:06:48.469Z,98831.72
2022-09-27T21:09:19.082Z,98829.81
2022-09-27T21:11:48.688Z,98826.50
2022-09-27T21:14:16.217Z,98819.88
2022-09-27T21:16:43.366Z,98819.03
2022-09-27T21:19:11.434Z,98806.53
2022-09-27T21:21:38.446Z,98800.03
2022-09-27T21:24:14.710Z,98797.69
2022-09-27T21:26:41.687Z,98797.03
2022-09-27T21:29:11.674Z,98784.75
2022-09-27T21:31:38.945Z,98775.06
2022-09-27T21:34:06.790Z,98771.91
2022-09-27T21:36:37.719Z,98775.34
2022-09-27T21:39:08.535Z,98760.91
2022-09-27T21:41:35.724Z,98761.09
2022-09-27T21:44:05.031Z,98757.78
2022-09-27T21:46:32.292Z,98760.28
2022-09-27T21:49:04.296Z,98757.41
2022-09-27T21:51:40.167Z,98748.19
2022-09-27T21:54:14.517Z,98739.50
2022-09-27T21:56:43.017Z,98742.72
2022-09-27T21:59:13.693Z,98745.66
2022-09-27T22:01:44.149Z,98741.97
2022-09-27T22:04:11.464Z,98719.28
2022-09-27T22:06:39.329Z,98719.03
2022-09-27T22:09:11.593Z,98721.97
2022-09-27T22:11:44.281Z,98731.03
2022-09-27T22:14:12.363Z,98725.03
2022-09-27T22:16:39.463Z,98724.56
2022-09-27T22:19:07.143Z,98723.31
2022-09-27T22:21:39.435Z,98707.69
2022-09-27T22:24:12.879Z,98705.88
2022-09-27T22:26:44.839Z,98701.00
2022-09-27T22:29:11.699Z,98700.63
2022-09-27T22:31:38.718Z,98688.81
2022-09-27T22:34:08.209Z,98688.81
2022-09-27T22:36:35.546Z,98676.50
2022-09-27T22:39:02.887Z,98663.88
2022-09-27T22:41:30.411Z,98663.69
2022-09-27T22:43:57.963Z,98658.47
2022-09-27T22:46:25.313Z,98650.78
2022-09-27T22:48:52.917Z,98655.69
2022-09-27T22:51:19.905Z,98644.09
2022-09-27T22:53:47.008Z,98643.72
2022-09-27T22:56:16.068Z,98637.63
2022-09-27T22:58:44.111Z,98625.00
2022-09-27T23:01:19.218Z,98639.91
2022-09-27T23:03:47.858Z,98638.66
2022-09-27T23:06:16.907Z,98633.47
2022-09-27T23:08:44.307Z,98626.94
2022-09-27T23:11:22.668Z,98622.19
2022-09-27T23:13:50.987Z,98618.50
2022-09-27T23:16:21.177Z,98616.97
2022-09-27T23:18:48.175Z,98616.16
2022-09-27T23:21:17.084Z,98608.06
2022-09-27T23:23:46.034Z,98604.59
2022-09-27T23:26:16.490Z,98602.59
2022-09-27T23:28:43.805Z,98591.38
2022-09-27T23:31:16.946Z,98577.69
2022-09-27T23:33:47.453Z,98578.09
2022-09-27T23:36:17.810Z,98568.16
2022-09-27T23:38:46.465Z,98562.03
2022-09-27T23:41:15.414Z,98558.66
2022-09-27T23:43:42.756Z,98555.88
2022-09-27T23:46:10.163Z,98543.63
2022-09-27T23:48:38.624Z,98541.34
2022-09-27T23:51:10.049Z,98543.03
2022-09-27T23:53:38.032Z,98539.66
2022-09-27T23:56:16.827Z,98540.03
2022-09-27T23:58:45.964Z,98542.44
